sensor_id;sensor_type;location;lat;lon;timestamp;P1;durP1;ratioP1;P2;durP2;ratioP2
33644;SDS011;19986;48.190;16.366;2022-08-19T00:00:13;27.48;;;25.30;;
33644;SDS011;19986;48.190;16.366;2022-08-19T00:02:41;27.15;;;24.90;;
33644;SDS011;19986;48.190;16.366;2022-08-19T00:05:08;27.52;;;25.63;;
33644;SDS011;19986;48.190;16.366;2022-08-19T00:07:35;25.83;;;23.63;;
33644;SDS011;19986;48.190;16.366;2022-08-19T00:10:04;27.65;;;25.58;;
33644;SDS011;19986;48.190;16.366;2022-08-19T00:12:31;27.15;;;25.25;;
33644;SDS011;19986;48.190;16.366;2022-08-19T00:14:58;26.83;;;24.45;;
33644;SDS011;19986;48.190;16.366;2022-08-19T00:17:24;26.83;;;24.73;;
33644;SDS011;19986;48.190;16.366;2022-08-19T00:19:49;26.33;;;24.52;;
33644;SDS011;19986;48.190;16.366;2022-08-19T00:22:15;25.80;;;23.88;;
33644;SDS011;19986;48.190;16.366;2022-08-19T00:24:43;25.80;;;24.00;;
33644;SDS011;19986;48.190;16.366;2022-08-19T00:27:10;27.45;;;25.52;;
33644;SDS011;19986;48.190;16.366;2022-08-19T00:29:37;27.42;;;25.42;;
33644;SDS011;19986;48.190;16.366;2022-08-19T00:32:03;27.05;;;24.88;;
33644;SDS011;19986;48.190;16.366;2022-08-19T00:34:30;25.45;;;23.65;;
33644;SDS011;19986;48.190;16.366;2022-08-19T00:36:56;27.52;;;25.27;;
33644;SDS011;19986;48.190;16.366;2022-08-19T00:39:22;25.48;;;23.52;;
33644;SDS011;19986;48.190;16.366;2022-08-19T00:41:49;25.38;;;23.58;;
33644;SDS011;19986;48.190;16.366;2022-08-19T00:44:20;26.83;;;24.67;;
33644;SDS011;19986;48.190;16.366;2022-08-19T00:46:49;26.73;;;24.88;;
33644;SDS011;19986;48.190;16.366;2022-08-19T00:51:42;25.65;;;23.95;;
33644;SDS011;19986;48.190;16.366;2022-08-19T00:54:12;26.63;;;24.60;;
33644;SDS011;19986;48.190;16.366;2022-08-19T00:56:38;26.92;;;24.75;;
33644;SDS011;19986;48.190;16.366;2022-08-19T00:59:06;26.25;;;24.10;;
33644;SDS011;19986;48.190;16.366;2022-08-19T01:01:37;26.98;;;24.95;;
33644;SDS011;19986;48.190;16.366;2022-08-19T01:04:05;26.95;;;24.77;;
33644;SDS011;19986;48.190;16.366;2022-08-19T01:06:31;26.25;;;24.35;;
33644;SDS011;19986;48.190;16.366;2022-08-19T01:08:59;27.02;;;25.17;;
33644;SDS011;19986;48.190;16.366;2022-08-19T01:11:28;26.33;;;24.48;;
33644;SDS011;19986;48.190;16.366;2022-08-19T01:13:55;26.98;;;24.80;;
33644;SDS011;19986;48.190;16.366;2022-08-19T01:16:22;25.92;;;23.45;;
33644;SDS011;19986;48.190;16.366;2022-08-19T01:18:50;26.67;;;24.77;;
33644;SDS011;19986;48.190;16.366;2022-08-19T01:21:18;25.58;;;23.70;;
33644;SDS011;19986;48.190;16.366;2022-08-19T01:24:02;27.65;;;25.58;;
33644;SDS011;19986;48.190;16.366;2022-08-19T01:26:28;26.70;;;24.80;;
33644;SDS011;19986;48.190;16.366;2022-08-19T01:28:55;26.38;;;24.35;;
33644;SDS011;19986;48.190;16.366;2022-08-19T01:31:25;26.95;;;24.80;;
33644;SDS011;19986;48.190;16.366;2022-08-19T01:33:56;26.10;;;24.42;;
33644;SDS011;19986;48.190;16.366;2022-08-19T01:38:51;26.38;;;24.35;;
33644;SDS011;19986;48.190;16.366;2022-08-19T01:41:18;26.77;;;24.88;;
33644;SDS011;19986;48.190;16.366;2022-08-19T01:43:44;25.50;;;23.70;;
33644;SDS011;19986;48.190;16.366;2022-08-19T01:46:11;27.42;;;25.67;;
33644;SDS011;19986;48.190;16.366;2022-08-19T01:48:39;26.08;;;24.05;;
33644;SDS011;19986;48.190;16.366;2022-08-19T01:51:07;26.27;;;24.65;;
33644;SDS011;19986;48.190;16.366;2022-08-19T01:53:35;26.95;;;25.15;;
33644;SDS011;19986;48.190;16.366;2022-08-19T01:56:02;27.50;;;25.58;;
33644;SDS011;19986;48.190;16.366;2022-08-19T01:58:31;26.50;;;24.65;;
33644;SDS011;19986;48.190;16.366;2022-08-19T02:01:03;26.50;;;24.80;;
33644;SDS011;19986;48.190;16.366;2022-08-19T02:03:30;26.02;;;24.23;;
33644;SDS011;19986;48.190;16.366;2022-08-19T02:05:57;27.58;;;25.67;;
33644;SDS011;19986;48.190;16.366;2022-08-19T02:08:25;27.77;;;25.73;;
33644;SDS011;19986;48.190;16.366;2022-08-19T02:10:52;26.60;;;24.80;;
33644;SDS011;19986;48.190;16.366;2022-08-19T02:13:18;27.20;;;25.33;;
33644;SDS011;19986;48.190;16.366;2022-08-19T02:15:45;24.65;;;22.90;;
33644;SDS011;19986;48.190;16.366;2022-08-19T02:18:11;27.05;;;24.88;;
33644;SDS011;19986;48.190;16.366;2022-08-19T02:20:38;26.67;;;24.95;;
33644;SDS011;19986;48.190;16.366;2022-08-19T02:23:07;25.77;;;23.85;;
33644;SDS011;19986;48.190;16.366;2022-08-19T02:25:33;25.65;;;23.73;;
33644;SDS011;19986;48.190;16.366;2022-08-19T02:27:59;25.98;;;24.10;;
33644;SDS011;19986;48.190;16.366;2022-08-19T02:30:26;26.65;;;24.85;;
33644;SDS011;19986;48.190;16.366;2022-08-19T02:32:52;27.98;;;25.98;;
33644;SDS011;19986;48.190;16.366;2022-08-19T02:35:23;26.25;;;24.27;;
33644;SDS011;19986;48.190;16.366;2022-08-19T02:37:50;27.15;;;25.33;;
33644;SDS011;19986;48.190;16.366;2022-08-19T02:40:35;28.10;;;26.15;;
33644;SDS011;19986;48.190;16.366;2022-08-19T02:43:02;27.23;;;25.13;;
33644;SDS011;19986;48.190;16.366;2022-08-19T02:45:33;26.25;;;24.02;;
33644;SDS011;19986;48.190;16.366;2022-08-19T02:48:00;27.23;;;25.17;;
33644;SDS011;19986;48.190;16.366;2022-08-19T02:50:26;26.17;;;24.35;;
33644;SDS011;19986;48.190;16.366;2022-08-19T02:52:53;26.17;;;24.58;;
33644;SDS011;19986;48.190;16.366;2022-08-19T02:55:19;26.48;;;24.60;;
33644;SDS011;19986;48.190;16.366;2022-08-19T02:57:46;27.20;;;25.20;;
33644;SDS011;19986;48.190;16.366;2022-08-19T03:00:13;27.63;;;25.52;;
33644;SDS011;19986;48.190;16.366;2022-08-19T03:02:39;26.80;;;24.63;;
33644;SDS011;19986;48.190;16.366;2022-08-19T03:05:06;27.27;;;25.10;;
33644;SDS011;19986;48.190;16.366;2022-08-19T03:07:34;26.58;;;24.45;;
33644;SDS011;19986;48.190;16.366;2022-08-19T03:10:01;25.30;;;23.55;;
33644;SDS011;19986;48.190;16.366;2022-08-19T03:12:27;27.58;;;25.65;;
33644;SDS011;19986;48.190;16.366;2022-08-19T03:14:53;27.17;;;25.50;;
33644;SDS011;19986;48.190;16.366;2022-08-19T03:17:19;27.65;;;25.75;;
33644;SDS011;19986;48.190;16.366;2022-08-19T03:19:45;26.90;;;25.05;;
33644;SDS011;19986;48.190;16.366;2022-08-19T03:22:11;27.33;;;25.10;;
33644;SDS011;19986;48.190;16.366;2022-08-19T03:24:37;28.75;;;26.77;;
33644;SDS011;19986;48.190;16.366;2022-08-19T03:27:04;27.38;;;25.33;;
33644;SDS011;19986;48.190;16.366;2022-08-19T03:29:30;27.30;;;25.45;;
33644;SDS011;19986;48.190;16.366;2022-08-19T03:31:58;26.52;;;24.70;;
33644;SDS011;19986;48.190;16.366;2022-08-19T03:34:29;29.15;;;26.73;;
33644;SDS011;19986;48.190;16.366;2022-08-19T03:36:58;25.55;;;23.85;;
33644;SDS011;19986;48.190;16.366;2022-08-19T03:39:27;25.75;;;24.08;;
33644;SDS011;19986;48.190;16.366;2022-08-19T03:41:54;27.30;;;25.48;;
33644;SDS011;19986;48.190;16.366;2022-08-19T03:44:25;26.38;;;24.17;;
33644;SDS011;19986;48.190;16.366;2022-08-19T03:46:52;25.63;;;23.98;;
33644;SDS011;19986;48.190;16.366;2022-08-19T03:49:23;28.27;;;25.73;;
33644;SDS011;19986;48.190;16.366;2022-08-19T03:51:52;26.30;;;23.83;;
33644;SDS011;19986;48.190;16.366;2022-08-19T03:54:21;26.90;;;24.40;;
33644;SDS011;19986;48.190;16.366;2022-08-19T03:56:50;27.52;;;25.33;;
33644;SDS011;19986;48.190;16.366;2022-08-19T03:59:23;26.42;;;24.35;;
33644;SDS011;19986;48.190;16.366;2022-08-19T04:01:55;26.77;;;24.90;;
33644;SDS011;19986;48.190;16.366;2022-08-19T04:04:23;26.75;;;25.00;;
33644;SDS011;19986;48.190;16.366;2022-08-19T04:06:50;26.13;;;24.10;;
33644;SDS011;19986;48.190;16.366;2022-08-19T04:09:17;27.98;;;25.92;;
33644;SDS011;19986;48.190;16.366;2022-08-19T04:11:51;27.00;;;24.67;;
33644;SDS011;19986;48.190;16.366;2022-08-19T04:14:22;26.63;;;24.75;;
33644;SDS011;19986;48.190;16.366;2022-08-19T04:16:52;28.70;;;26.50;;
33644;SDS011;19986;48.190;16.366;2022-08-19T04:19:19;27.27;;;25.02;;
33644;SDS011;19986;48.190;16.366;2022-08-19T04:21:46;28.05;;;25.58;;
33644;SDS011;19986;48.190;16.366;2022-08-19T04:24:15;27.83;;;25.27;;
33644;SDS011;19986;48.190;16.366;2022-08-19T04:26:41;29.08;;;26.60;;
33644;SDS011;19986;48.190;16.366;2022-08-19T04:29:10;27.40;;;24.98;;
33644;SDS011;19986;48.190;16.366;2022-08-19T04:31:38;24.83;;;23.02;;
33644;SDS011;19986;48.190;16.366;2022-08-19T04:34:07;26.35;;;24.40;;
33644;SDS011;19986;48.190;16.366;2022-08-19T04:36:36;28.17;;;26.08;;
33644;SDS011;19986;48.190;16.366;2022-08-19T04:39:09;27.08;;;25.00;;
33644;SDS011;19986;48.190;16.366;2022-08-19T04:41:38;25.73;;;23.67;;
33644;SDS011;19986;48.190;16.366;2022-08-19T04:44:23;26.85;;;25.00;;
33644;SDS011;19986;48.190;16.366;2022-08-19T04:46:49;26.38;;;24.75;;
33644;SDS011;19986;48.190;16.366;2022-08-19T04:49:16;26.08;;;24.23;;
33644;SDS011;19986;48.190;16.366;2022-08-19T04:51:45;27.23;;;25.20;;
33644;SDS011;19986;48.190;16.366;2022-08-19T04:54:13;27.95;;;25.60;;
33644;SDS011;19986;48.190;16.366;2022-08-19T04:56:40;27.65;;;25.70;;
33644;SDS011;19986;48.190;16.366;2022-08-19T04:59:06;26.50;;;24.33;;
33644;SDS011;19986;48.190;16.366;2022-08-19T05:01:33;26.02;;;24.35;;
33644;SDS011;19986;48.190;16.366;2022-08-19T05:04:04;26.65;;;24.27;;
33644;SDS011;19986;48.190;16.366;2022-08-19T05:06:33;29.08;;;26.85;;
33644;SDS011;19986;48.190;16.366;2022-08-19T05:09:00;28.15;;;26.05;;
33644;SDS011;19986;48.190;16.366;2022-08-19T05:11:33;27.17;;;25.00;;
33644;SDS011;19986;48.190;16.366;2022-08-19T05:14:05;27.90;;;25.92;;
33644;SDS011;19986;48.190;16.366;2022-08-19T05:16:31;27.10;;;25.08;;
33644;SDS011;19986;48.190;16.366;2022-08-19T05:18:57;27.48;;;25.42;;
33644;SDS011;19986;48.190;16.366;2022-08-19T05:21:42;28.05;;;25.73;;
33644;SDS011;19986;48.190;16.366;2022-08-19T05:24:27;27.73;;;25.77;;
33644;SDS011;19986;48.190;16.366;2022-08-19T05:26:54;29.85;;;27.58;;
33644;SDS011;19986;48.190;16.366;2022-08-19T05:29:22;30.52;;;27.67;;
33644;SDS011;19986;48.190;16.366;2022-08-19T05:31:50;29.02;;;27.02;;
33644;SDS011;19986;48.190;16.366;2022-08-19T05:34:18;31.02;;;28.48;;
33644;SDS011;19986;48.190;16.366;2022-08-19T05:36:47;30.65;;;28.48;;
33644;SDS011;19986;48.190;16.366;2022-08-19T05:39:15;30.88;;;28.63;;
33644;SDS011;19986;48.190;16.366;2022-08-19T05:41:43;32.80;;;30.13;;
33644;SDS011;19986;48.190;16.366;2022-08-19T05:44:16;31.02;;;28.75;;
33644;SDS011;19986;48.190;16.366;2022-08-19T05:46:45;32.95;;;30.33;;
33644;SDS011;19986;48.190;16.366;2022-08-19T05:49:14;29.98;;;28.15;;
33644;SDS011;19986;48.190;16.366;2022-08-19T05:51:41;34.28;;;31.13;;
33644;SDS011;19986;48.190;16.366;2022-08-19T05:54:08;33.05;;;30.60;;
33644;SDS011;19986;48.190;16.366;2022-08-19T05:56:34;32.35;;;30.27;;
33644;SDS011;19986;48.190;16.366;2022-08-19T05:59:04;32.20;;;29.05;;
33644;SDS011;19986;48.190;16.366;2022-08-19T06:01:35;33.78;;;30.98;;
33644;SDS011;19986;48.190;16.366;2022-08-19T06:04:03;33.72;;;31.20;;
33644;SDS011;19986;48.190;16.366;2022-08-19T06:06:29;32.67;;;30.17;;
33644;SDS011;19986;48.190;16.366;2022-08-19T06:08:55;32.50;;;30.40;;
33644;SDS011;19986;48.190;16.366;2022-08-19T06:11:22;31.30;;;29.20;;
33644;SDS011;19986;48.190;16.366;2022-08-19T06:13:51;33.42;;;30.63;;
33644;SDS011;19986;48.190;16.366;2022-08-19T06:16:18;32.17;;;29.88;;
33644;SDS011;19986;48.190;16.366;2022-08-19T06:18:51;33.45;;;31.17;;
33644;SDS011;19986;48.190;16.366;2022-08-19T06:21:19;33.53;;;31.42;;
33644;SDS011;19986;48.190;16.366;2022-08-19T06:23:49;32.20;;;30.20;;
33644;SDS011;19986;48.190;16.366;2022-08-19T06:26:17;32.15;;;30.08;;
33644;SDS011;19986;48.190;16.366;2022-08-19T06:28:45;32.88;;;30.73;;
33644;SDS011;19986;48.190;16.366;2022-08-19T06:31:13;32.40;;;30.30;;
33644;SDS011;19986;48.190;16.366;2022-08-19T06:33:41;31.50;;;29.50;;
33644;SDS011;19986;48.190;16.366;2022-08-19T06:36:15;31.73;;;29.77;;
33644;SDS011;19986;48.190;16.366;2022-08-19T06:38:45;31.45;;;29.10;;
33644;SDS011;19986;48.190;16.366;2022-08-19T06:41:11;29.48;;;27.38;;
33644;SDS011;19986;48.190;16.366;2022-08-19T06:43:37;31.95;;;29.80;;
33644;SDS011;19986;48.190;16.366;2022-08-19T06:46:03;30.17;;;28.05;;
33644;SDS011;19986;48.190;16.366;2022-08-19T06:48:35;30.92;;;28.98;;
33644;SDS011;19986;48.190;16.366;2022-08-19T06:51:01;32.13;;;29.92;;
33644;SDS011;19986;48.190;16.366;2022-08-19T06:53:29;30.38;;;28.48;;
33644;SDS011;19986;48.190;16.366;2022-08-19T06:55:54;30.60;;;28.70;;
33644;SDS011;19986;48.190;16.366;2022-08-19T06:58:42;28.95;;;27.05;;
33644;SDS011;19986;48.190;16.366;2022-08-19T07:01:08;29.58;;;27.55;;
33644;SDS011;19986;48.190;16.366;2022-08-19T07:03:36;29.58;;;27.65;;
33644;SDS011;19986;48.190;16.366;2022-08-19T07:06:04;29.40;;;27.42;;
33644;SDS011;19986;48.190;16.366;2022-08-19T07:08:43;29.55;;;27.65;;
33644;SDS011;19986;48.190;16.366;2022-08-19T07:11:12;31.08;;;28.98;;
33644;SDS011;19986;48.190;16.366;2022-08-19T07:13:43;31.27;;;29.05;;
33644;SDS011;19986;48.190;16.366;2022-08-19T07:16:14;31.27;;;28.90;;
33644;SDS011;19986;48.190;16.366;2022-08-19T07:18:42;30.27;;;28.38;;
33644;SDS011;19986;48.190;16.366;2022-08-19T07:21:13;29.90;;;27.67;;
33644;SDS011;19986;48.190;16.366;2022-08-19T07:23:42;29.27;;;26.98;;
33644;SDS011;19986;48.190;16.366;2022-08-19T07:26:13;28.27;;;26.52;;
33644;SDS011;19986;48.190;16.366;2022-08-19T07:28:39;29.13;;;27.33;;
33644;SDS011;19986;48.190;16.366;2022-08-19T07:31:06;29.17;;;27.35;;
33644;SDS011;19986;48.190;16.366;2022-08-19T07:33:33;28.63;;;26.65;;
33644;SDS011;19986;48.190;16.366;2022-08-19T07:36:05;31.63;;;28.98;;
33644;SDS011;19986;48.190;16.366;2022-08-19T07:38:33;27.73;;;25.83;;
33644;SDS011;19986;48.190;16.366;2022-08-19T07:41:02;28.80;;;27.05;;
33644;SDS011;19986;48.190;16.366;2022-08-19T07:43:28;29.30;;;27.48;;
33644;SDS011;19986;48.190;16.366;2022-08-19T07:45:54;29.23;;;27.55;;
33644;SDS011;19986;48.190;16.366;2022-08-19T07:48:24;29.38;;;27.50;;
33644;SDS011;19986;48.190;16.366;2022-08-19T07:50:52;29.55;;;27.77;;
33644;SDS011;19986;48.190;16.366;2022-08-19T07:53:20;27.52;;;25.50;;
33644;SDS011;19986;48.190;16.366;2022-08-19T07:55:47;29.20;;;27.08;;
33644;SDS011;19986;48.190;16.366;2022-08-19T07:58:14;26.25;;;24.60;;
33644;SDS011;19986;48.190;16.366;2022-08-19T08:00:42;27.98;;;26.08;;
33644;SDS011;19986;48.190;16.366;2022-08-19T08:03:09;26.90;;;25.08;;
33644;SDS011;19986;48.190;16.366;2022-08-19T08:05:36;29.75;;;27.05;;
33644;SDS011;19986;48.190;16.366;2022-08-19T08:08:21;27.08;;;25.08;;
33644;SDS011;19986;48.190;16.366;2022-08-19T08:10:56;26.40;;;24.40;;
33644;SDS011;19986;48.190;16.366;2022-08-19T08:13:23;26.58;;;24.83;;
33644;SDS011;19986;48.190;16.366;2022-08-19T08:15:50;25.17;;;23.65;;
33644;SDS011;19986;48.190;16.366;2022-08-19T08:18:16;26.33;;;24.52;;
33644;SDS011;19986;48.190;16.366;2022-08-19T08:20:42;27.38;;;25.60;;
33644;SDS011;19986;48.190;16.366;2022-08-19T08:23:08;26.80;;;25.17;;
33644;SDS011;19986;48.190;16.366;2022-08-19T08:25:55;28.17;;;26.30;;
33644;SDS011;19986;48.190;16.366;2022-08-19T08:28:23;27.60;;;25.73;;
33644;SDS011;19986;48.190;16.366;2022-08-19T08:30:49;25.98;;;24.08;;
33644;SDS011;19986;48.190;16.366;2022-08-19T08:33:22;26.10;;;24.35;;
33644;SDS011;19986;48.190;16.366;2022-08-19T08:35:50;27.23;;;25.05;;
33644;SDS011;19986;48.190;16.366;2022-08-19T08:38:17;25.40;;;23.75;;
33644;SDS011;19986;48.190;16.366;2022-08-19T08:41:04;26.58;;;24.80;;
33644;SDS011;19986;48.190;16.366;2022-08-19T08:43:45;26.08;;;24.30;;
33644;SDS011;19986;48.190;16.366;2022-08-19T08:46:18;26.38;;;24.52;;
33644;SDS011;19986;48.190;16.366;2022-08-19T08:49:06;27.52;;;25.45;;
33644;SDS011;19986;48.190;16.366;2022-08-19T08:51:52;25.60;;;23.65;;
33644;SDS011;19986;48.190;16.366;2022-08-19T08:54:27;27.13;;;25.35;;
33644;SDS011;19986;48.190;16.366;2022-08-19T08:57:03;26.08;;;24.25;;
33644;SDS011;19986;48.190;16.366;2022-08-19T08:59:47;26.45;;;24.30;;
33644;SDS011;19986;48.190;16.366;2022-08-19T09:02:17;27.75;;;26.05;;
33644;SDS011;19986;48.190;16.366;2022-08-19T09:04:44;27.85;;;25.90;;
33644;SDS011;19986;48.190;16.366;2022-08-19T09:07:17;26.95;;;25.15;;
33644;SDS011;19986;48.190;16.366;2022-08-19T09:10:21;27.63;;;25.83;;
33644;SDS011;19986;48.190;16.366;2022-08-19T09:15:47;27.00;;;24.83;;
33644;SDS011;19986;48.190;16.366;2022-08-19T09:18:16;29.23;;;27.30;;
33644;SDS011;19986;48.190;16.366;2022-08-19T09:20:42;30.27;;;27.95;;
33644;SDS011;19986;48.190;16.366;2022-08-19T09:23:08;28.80;;;26.33;;
33644;SDS011;19986;48.190;16.366;2022-08-19T09:25:36;28.15;;;26.33;;
33644;SDS011;19986;48.190;16.366;2022-08-19T09:28:01;27.52;;;25.33;;
33644;SDS011;19986;48.190;16.366;2022-08-19T09:30:30;27.63;;;25.58;;
33644;SDS011;19986;48.190;16.366;2022-08-19T09:33:07;27.42;;;25.58;;
33644;SDS011;19986;48.190;16.366;2022-08-19T09:35:33;26.75;;;25.13;;
33644;SDS011;19986;48.190;16.366;2022-08-19T09:38:01;28.40;;;26.02;;
33644;SDS011;19986;48.190;16.366;2022-08-19T09:40:27;26.85;;;24.80;;
33644;SDS011;19986;48.190;16.366;2022-08-19T09:42:54;27.50;;;25.60;;
33644;SDS011;19986;48.190;16.366;2022-08-19T09:45:22;28.25;;;26.10;;
33644;SDS011;19986;48.190;16.366;2022-08-19T09:47:52;26.88;;;24.75;;
33644;SDS011;19986;48.190;16.366;2022-08-19T09:50:18;27.40;;;25.48;;
33644;SDS011;19986;48.190;16.366;2022-08-19T09:52:45;26.70;;;24.75;;
33644;SDS011;19986;48.190;16.366;2022-08-19T09:55:11;26.65;;;24.33;;
33644;SDS011;19986;48.190;16.366;2022-08-19T09:57:38;27.58;;;25.38;;
33644;SDS011;19986;48.190;16.366;2022-08-19T10:00:05;26.38;;;24.27;;
33644;SDS011;19986;48.190;16.366;2022-08-19T10:02:32;27.40;;;25.27;;
33644;SDS011;19986;48.190;16.366;2022-08-19T10:04:59;27.58;;;25.42;;
33644;SDS011;19986;48.190;16.366;2022-08-19T10:07:43;26.80;;;24.77;;
33644;SDS011;19986;48.190;16.366;2022-08-19T10:10:09;26.10;;;24.13;;
33644;SDS011;19986;48.190;16.366;2022-08-19T10:12:35;26.23;;;24.05;;
33644;SDS011;19986;48.190;16.366;2022-08-19T10:15:02;24.45;;;22.77;;
33644;SDS011;19986;48.190;16.366;2022-08-19T10:17:29;26.23;;;24.10;;
33644;SDS011;19986;48.190;16.366;2022-08-19T10:19:58;26.52;;;24.20;;
33644;SDS011;19986;48.190;16.366;2022-08-19T10:22:24;26.75;;;24.70;;
33644;SDS011;19986;48.190;16.366;2022-08-19T10:24:51;26.08;;;24.08;;
33644;SDS011;19986;48.190;16.366;2022-08-19T10:27:17;26.55;;;24.38;;
33644;SDS011;19986;48.190;16.366;2022-08-19T10:29:43;25.27;;;23.48;;
33644;SDS011;19986;48.190;16.366;2022-08-19T10:32:09;26.45;;;24.35;;
33644;SDS011;19986;48.190;16.366;2022-08-19T10:34:36;25.48;;;23.65;;
33644;SDS011;19986;48.190;16.366;2022-08-19T10:37:04;25.85;;;23.73;;
33644;SDS011;19986;48.190;16.366;2022-08-19T10:39:32;26.85;;;24.92;;
33644;SDS011;19986;48.190;16.366;2022-08-19T10:42:03;26.77;;;24.60;;
33644;SDS011;19986;48.190;16.366;2022-08-19T10:44:31;26.67;;;24.60;;
33644;SDS011;19986;48.190;16.366;2022-08-19T10:46:58;28.73;;;26.15;;
33644;SDS011;19986;48.190;16.366;2022-08-19T10:49:24;28.35;;;26.15;;
33644;SDS011;19986;48.190;16.366;2022-08-19T10:51:50;26.85;;;24.50;;
33644;SDS011;19986;48.190;16.366;2022-08-19T10:54:34;27.60;;;25.10;;
33644;SDS011;19986;48.190;16.366;2022-08-19T10:57:19;27.30;;;25.35;;
33644;SDS011;19986;48.190;16.366;2022-08-19T10:59:45;26.73;;;24.55;;
33644;SDS011;19986;48.190;16.366;2022-08-19T11:02:12;26.48;;;24.08;;
33644;SDS011;19986;48.190;16.366;2022-08-19T11:04:39;27.70;;;25.15;;
33644;SDS011;19986;48.190;16.366;2022-08-19T11:07:05;27.38;;;24.95;;
33644;SDS011;19986;48.190;16.366;2022-08-19T11:09:36;29.15;;;26.05;;
33644;SDS011;19986;48.190;16.366;2022-08-19T11:12:07;24.92;;;22.70;;
33644;SDS011;19986;48.190;16.366;2022-08-19T11:14:34;25.20;;;22.88;;
33644;SDS011;19986;48.190;16.366;2022-08-19T11:17:01;26.05;;;23.85;;
33644;SDS011;19986;48.190;16.366;2022-08-19T11:19:28;26.85;;;24.40;;
33644;SDS011;19986;48.190;16.366;2022-08-19T11:21:54;27.25;;;24.92;;
33644;SDS011;19986;48.190;16.366;2022-08-19T11:24:21;28.27;;;25.42;;
33644;SDS011;19986;48.190;16.366;2022-08-19T11:26:49;26.55;;;24.38;;
33644;SDS011;19986;48.190;16.366;2022-08-19T11:29:17;26.65;;;24.13;;
33644;SDS011;19986;48.190;16.366;2022-08-19T11:31:46;25.65;;;23.50;;
33644;SDS011;19986;48.190;16.366;2022-08-19T11:34:15;26.38;;;23.98;;
33644;SDS011;19986;48.190;16.366;2022-08-19T11:36:44;27.70;;;23.60;;
33644;SDS011;19986;48.190;16.366;2022-08-19T11:39:12;25.00;;;22.85;;
33644;SDS011;19986;48.190;16.366;2022-08-19T11:41:40;26.40;;;23.88;;
33644;SDS011;19986;48.190;16.366;2022-08-19T11:44:06;27.85;;;23.75;;
33644;SDS011;19986;48.190;16.366;2022-08-19T11:46:33;25.75;;;23.20;;
33644;SDS011;19986;48.190;16.366;2022-08-19T11:49:00;28.67;;;25.05;;
33644;SDS011;19986;48.190;16.366;2022-08-19T11:51:28;26.85;;;24.45;;
33644;SDS011;19986;48.190;16.366;2022-08-19T11:53:55;26.48;;;23.60;;
33644;SDS011;19986;48.190;16.366;2022-08-19T11:56:22;25.10;;;22.60;;
33644;SDS011;19986;48.190;16.366;2022-08-19T11:58:49;25.48;;;23.00;;
33644;SDS011;19986;48.190;16.366;2022-08-19T12:01:17;25.45;;;22.20;;
33644;SDS011;19986;48.190;16.366;2022-08-19T12:03:45;28.55;;;24.27;;
33644;SDS011;19986;48.190;16.366;2022-08-19T12:06:13;27.08;;;24.30;;
33644;SDS011;19986;48.190;16.366;2022-08-19T12:08:40;27.58;;;24.70;;
33644;SDS011;19986;48.190;16.366;2022-08-19T12:11:07;27.05;;;23.92;;
33644;SDS011;19986;48.190;16.366;2022-08-19T12:13:34;31.30;;;24.50;;
33644;SDS011;19986;48.190;16.366;2022-08-19T12:16:00;25.83;;;23.30;;
33644;SDS011;19986;48.190;16.366;2022-08-19T12:18:32;27.15;;;24.70;;
33644;SDS011;19986;48.190;16.366;2022-08-19T12:20:58;27.10;;;24.65;;
33644;SDS011;19986;48.190;16.366;2022-08-19T12:23:25;26.85;;;24.30;;
33644;SDS011;19986;48.190;16.366;2022-08-19T12:25:52;24.42;;;22.60;;
33644;SDS011;19986;48.190;16.366;2022-08-19T12:28:20;26.10;;;23.88;;
33644;SDS011;19986;48.190;16.366;2022-08-19T12:30:47;26.33;;;24.27;;
33644;SDS011;19986;48.190;16.366;2022-08-19T12:33:15;26.70;;;24.60;;
33644;SDS011;19986;48.190;16.366;2022-08-19T12:35:41;24.88;;;23.05;;
33644;SDS011;19986;48.190;16.366;2022-08-19T12:38:09;28.08;;;25.58;;
33644;SDS011;19986;48.190;16.366;2022-08-19T12:40:35;28.52;;;25.75;;
33644;SDS011;19986;48.190;16.366;2022-08-19T12:43:02;26.42;;;24.10;;
33644;SDS011;19986;48.190;16.366;2022-08-19T12:45:28;26.85;;;24.13;;
33644;SDS011;19986;48.190;16.366;2022-08-19T12:47:54;26.65;;;24.63;;
33644;SDS011;19986;48.190;16.366;2022-08-19T12:50:20;28.42;;;26.02;;
33644;SDS011;19986;48.190;16.366;2022-08-19T12:52:46;27.17;;;24.63;;
33644;SDS011;19986;48.190;16.366;2022-08-19T12:55:13;27.20;;;24.42;;
33644;SDS011;19986;48.190;16.366;2022-08-19T12:57:39;27.80;;;25.05;;
33644;SDS011;19986;48.190;16.366;2022-08-19T13:00:06;27.38;;;24.98;;
33644;SDS011;19986;48.190;16.366;2022-08-19T13:02:41;28.30;;;25.73;;
33644;SDS011;19986;48.190;16.366;2022-08-19T13:05:13;26.77;;;24.30;;
33644;SDS011;19986;48.190;16.366;2022-08-19T13:07:43;28.40;;;24.48;;
33644;SDS011;19986;48.190;16.366;2022-08-19T13:10:10;26.77;;;24.23;;
33644;SDS011;19986;48.190;16.366;2022-08-19T13:12:41;28.25;;;25.58;;
33644;SDS011;19986;48.190;16.366;2022-08-19T13:15:08;28.00;;;23.60;;
33644;SDS011;19986;48.190;16.366;2022-08-19T13:17:35;29.85;;;23.13;;
33644;SDS011;19986;48.190;16.366;2022-08-19T13:20:04;27.23;;;24.63;;
33644;SDS011;19986;48.190;16.366;2022-08-19T13:22:33;27.35;;;23.83;;
33644;SDS011;19986;48.190;16.366;2022-08-19T13:25:00;26.67;;;24.23;;
33644;SDS011;19986;48.190;16.366;2022-08-19T13:27:26;26.58;;;24.42;;
33644;SDS011;19986;48.190;16.366;2022-08-19T13:29:53;27.45;;;24.67;;
33644;SDS011;19986;48.190;16.366;2022-08-19T13:32:37;28.08;;;25.23;;
33644;SDS011;19986;48.190;16.366;2022-08-19T13:35:22;26.10;;;23.50;;
33644;SDS011;19986;48.190;16.366;2022-08-19T13:37:47;26.17;;;23.83;;
33644;SDS011;19986;48.190;16.366;2022-08-19T13:40:18;26.80;;;24.13;;
33644;SDS011;19986;48.190;16.366;2022-08-19T13:42:48;29.02;;;25.15;;
33644;SDS011;19986;48.190;16.366;2022-08-19T13:45:17;27.15;;;24.40;;
33644;SDS011;19986;48.190;16.366;2022-08-19T13:47:46;27.63;;;25.05;;
33644;SDS011;19986;48.190;16.366;2022-08-19T13:50:18;25.05;;;22.77;;
33644;SDS011;19986;48.190;16.366;2022-08-19T13:52:46;27.50;;;25.00;;
33644;SDS011;19986;48.190;16.366;2022-08-19T13:55:13;26.95;;;24.55;;
33644;SDS011;19986;48.190;16.366;2022-08-19T13:57:40;27.15;;;24.35;;
33644;SDS011;19986;48.190;16.366;2022-08-19T14:00:08;27.33;;;24.92;;
33644;SDS011;19986;48.190;16.366;2022-08-19T14:02:37;26.02;;;23.52;;
33644;SDS011;19986;48.190;16.366;2022-08-19T14:05:05;26.73;;;24.23;;
33644;SDS011;19986;48.190;16.366;2022-08-19T14:07:35;25.88;;;23.45;;
33644;SDS011;19986;48.190;16.366;2022-08-19T14:10:08;26.27;;;23.98;;
33644;SDS011;19986;48.190;16.366;2022-08-19T14:12:36;27.85;;;24.92;;
33644;SDS011;19986;48.190;16.366;2022-08-19T14:15:06;28.38;;;24.80;;
33644;SDS011;19986;48.190;16.366;2022-08-19T14:17:33;27.02;;;24.80;;
33644;SDS011;19986;48.190;16.366;2022-08-19T14:20:00;27.48;;;24.60;;
33644;SDS011;19986;48.190;16.366;2022-08-19T14:22:32;26.27;;;23.77;;
33644;SDS011;19986;48.190;16.366;2022-08-19T14:24:59;28.45;;;25.35;;